createdAt,value
2018-09-05T08:18:57.953Z,21.01
2018-09-05T08:21:40.925Z,21.06
2018-09-05T08:23:06.914Z,20.97
2018-09-05T08:33:08.253Z,21.67
2018-09-05T08:34:33.966Z,21.64
2018-09-05T08:36:01.715Z,21.63
2018-09-05T08:37:29.964Z,21.60
2018-09-05T08:38:56.365Z,21.49
2018-09-05T08:41:12.217Z,21.53
2018-09-05T08:42:39.178Z,21.58
2018-09-05T08:44:06.693Z,21.64
2018-09-05T08:45:34.235Z,21.68
2018-09-05T08:47:02.623Z,21.68
2018-09-05T08:48:29.053Z,21.69
2018-09-05T08:49:57.530Z,21.70
2018-09-05T08:51:23.952Z,21.66
2018-09-05T08:52:54.680Z,21.59
2018-09-05T08:54:18.232Z,21.58
2018-09-05T08:55:46.760Z,21.55
2018-09-05T08:57:13.259Z,21.50
2018-09-05T08:58:41.983Z,21.44
2018-09-05T09:00:07.618Z,21.45
2018-09-05T09:01:36.280Z,21.51
2018-09-05T09:03:03.704Z,21.59
2018-09-05T09:04:30.936Z,21.65
2018-09-05T09:05:56.422Z,21.66
2018-09-05T09:07:23.837Z,21.74
2018-09-05T09:08:52.232Z,21.81
2018-09-05T09:10:18.899Z,21.87
2018-09-05T09:11:46.202Z,21.93
2018-09-05T09:13:13.535Z,21.98
2018-09-05T09:14:40.026Z,22.02
2018-09-05T09:16:08.043Z,22.07
2018-09-05T09:17:33.778Z,22.16
2018-09-05T09:19:01.028Z,22.23
2018-09-05T09:20:28.271Z,22.30
2018-09-05T09:21:56.718Z,22.25
2018-09-05T09:23:23.068Z,22.13
2018-09-05T09:24:49.487Z,22.10
2018-09-05T09:26:16.212Z,22.17
2018-09-05T09:27:44.873Z,22.20
2018-09-05T09:29:11.273Z,22.15
2018-09-05T09:30:39.422Z,22.16
2018-09-05T09:32:06.798Z,22.10
2018-09-05T09:33:32.909Z,22.02
2018-09-05T09:34:59.739Z,21.98
2018-09-05T09:36:26.893Z,22.02
2018-09-05T09:37:55.429Z,21.99
2018-09-05T09:39:22.067Z,22.07
2018-09-05T09:40:49.633Z,22.10
2018-09-05T09:42:16.861Z,22.18
2018-09-05T09:43:44.482Z,22.15
2018-09-05T09:45:13.019Z,22.08
2018-09-05T09:46:40.463Z,22.05
2018-09-05T09:48:07.144Z,22.04
2018-09-05T09:49:35.702Z,22.08
2018-09-05T09:51:02.164Z,22.20
2018-09-05T09:52:28.852Z,22.32
2018-09-05T09:53:56.424Z,22.33
2018-09-05T09:55:25.082Z,22.46
2018-09-05T09:56:52.627Z,22.47
2018-09-05T09:58:19.326Z,22.56
2018-09-05T09:59:47.869Z,22.61
2018-09-05T10:01:13.745Z,22.66
2018-09-05T10:02:41.283Z,22.72
2018-09-05T10:04:08.834Z,22.74
2018-09-05T10:05:36.321Z,22.83
2018-09-05T10:07:03.280Z,22.95
2018-09-05T10:08:30.710Z,23.05
2018-09-05T10:09:59.427Z,23.09
2018-09-05T10:11:25.810Z,23.03
2018-09-05T10:12:53.296Z,23.09
2018-09-05T10:14:21.066Z,23.16
2018-09-05T10:15:48.440Z,23.28
2018-09-05T10:17:17.118Z,23.43
2018-09-05T10:18:43.514Z,23.53
2018-09-05T10:20:10.913Z,23.65
2018-09-05T10:21:37.692Z,23.82
2018-09-05T10:23:05.081Z,23.92
2018-09-05T10:24:32.653Z,24.05
2018-09-05T10:26:00.102Z,24.25
2018-09-05T10:27:26.675Z,24.48
2018-09-05T10:28:54.272Z,24.35
2018-09-05T10:30:21.971Z,24.10
2018-09-05T10:31:49.494Z,23.89
2018-09-05T10:33:16.135Z,23.81
2018-09-05T10:34:43.761Z,23.70
2018-09-05T10:36:13.376Z,23.60
2018-09-05T10:37:39.637Z,23.45
2018-09-05T10:39:07.337Z,23.35
2018-09-05T10:40:34.785Z,23.42
2018-09-05T10:42:02.304Z,23.52
2018-09-05T10:43:29.753Z,23.56
2018-09-05T10:44:56.173Z,23.60
2018-09-05T10:46:23.914Z,23.77
2018-09-05T10:47:50.200Z,23.88
2018-09-05T10:49:17.031Z,23.94
2018-09-05T10:50:45.675Z,23.95
2018-09-05T10:52:13.094Z,23.96
2018-09-05T10:53:39.915Z,23.96
2018-09-05T10:55:06.271Z,24.00
2018-09-05T10:56:33.298Z,24.11
2018-09-05T10:58:01.753Z,24.21
2018-09-05T10:59:29.024Z,24.19
2018-09-05T11:00:56.712Z,24.10
2018-09-05T11:02:22.165Z,23.96
2018-09-05T11:03:50.702Z,23.94
2018-09-05T11:05:18.295Z,23.97
2018-09-05T11:06:44.825Z,24.01
2018-09-05T11:08:12.196Z,23.98
2018-09-05T11:09:40.977Z,23.92
2018-09-05T11:11:08.530Z,23.84
2018-09-05T11:12:34.335Z,23.83
2018-09-05T11:14:03.029Z,23.81
2018-09-05T11:15:30.644Z,23.82
2018-09-05T11:16:56.047Z,23.84
2018-09-05T11:18:23.673Z,23.90
2018-09-05T11:19:52.316Z,23.98
2018-09-05T11:21:18.843Z,24.00
2018-09-05T11:22:47.269Z,23.90
2018-09-05T11:24:13.847Z,23.84
2018-09-05T11:25:41.707Z,23.86
2018-09-05T11:27:11.301Z,23.91
2018-09-05T11:28:34.935Z,24.04
2018-09-05T11:30:03.272Z,24.27
2018-09-05T11:31:29.957Z,24.27
2018-09-05T11:32:58.038Z,24.37
2018-09-05T11:34:25.640Z,24.51
2018-09-05T11:35:51.782Z,24.66
2018-09-05T11:37:19.238Z,24.64
2018-09-05T11:38:46.181Z,24.74
2018-09-05T11:40:14.737Z,24.93
2018-09-05T11:41:41.315Z,25.04
2018-09-05T11:43:08.169Z,25.08
2018-09-05T11:44:34.930Z,25.23
2018-09-05T11:46:02.118Z,25.35
2018-09-05T11:47:29.385Z,25.50
2018-09-05T11:48:57.117Z,25.54
2018-09-05T11:50:24.804Z,25.53
2018-09-05T11:51:51.395Z,25.64
2018-09-05T11:53:18.772Z,25.81
2018-09-05T11:54:46.080Z,25.89
2018-09-05T11:56:12.634Z,26.08
2018-09-05T11:57:40.301Z,26.18
2018-09-05T11:59:07.095Z,25.97
2018-09-05T12:00:34.204Z,25.79
2018-09-05T12:02:02.245Z,25.72
2018-09-05T12:03:28.712Z,25.62
2018-09-05T12:04:57.309Z,25.62
2018-09-05T12:06:23.801Z,25.54
2018-09-05T12:07:51.408Z,25.45
2018-09-05T12:09:20.026Z,25.30
2018-09-05T12:10:46.067Z,25.28
2018-09-05T12:12:14.751Z,25.18
2018-09-05T12:13:41.007Z,25.16
2018-09-05T12:15:08.800Z,25.33
2018-09-05T12:16:37.297Z,25.46
2018-09-05T12:18:04.757Z,25.62
2018-09-05T12:19:30.997Z,25.85
2018-09-05T12:20:57.897Z,25.99
2018-09-05T12:22:26.457Z,26.18
2018-09-05T12:23:52.942Z,26.13
2018-09-05T12:25:20.532Z,26.00
2018-09-05T12:26:48.233Z,26.14
2018-09-05T12:28:14.878Z,26.33
2018-09-05T12:29:42.519Z,26.46
2018-09-05T12:31:11.221Z,26.59
2018-09-05T12:32:38.777Z,26.58
2018-09-05T12:34:05.301Z,26.65
2018-09-05T12:35:33.963Z,26.71
2018-09-05T12:37:00.203Z,26.83
2018-09-05T12:38:27.782Z,26.91
2018-09-05T12:39:55.606Z,26.83
2018-09-05T12:41:23.239Z,26.82
2018-09-05T12:42:50.800Z,26.85
2018-09-05T12:44:18.516Z,26.82
2018-09-05T12:45:46.076Z,26.86
2018-09-05T12:47:13.244Z,27.01
2018-09-05T12:48:41.488Z,27.12
2018-09-05T12:50:08.162Z,27.29
2018-09-05T12:51:34.431Z,27.15
2018-09-05T12:53:01.800Z,27.03
2018-09-05T12:54:29.268Z,27.12
2018-09-05T12:55:56.865Z,27.23
2018-09-05T12:57:24.395Z,27.38
2018-09-05T12:58:52.254Z,27.43
2018-09-05T13:00:20.978Z,27.20
2018-09-05T13:01:48.653Z,27.03
2018-09-05T13:03:15.216Z,26.86
2018-09-05T13:04:43.864Z,26.67
2018-09-05T13:06:11.509Z,26.54
2018-09-05T13:07:38.939Z,26.44
2018-09-05T13:09:04.469Z,26.33
2018-09-05T13:10:32.100Z,26.17
2018-09-05T13:11:59.568Z,26.01
2018-09-05T13:13:28.308Z,25.85
2018-09-05T13:14:54.999Z,25.76
2018-09-05T13:16:21.839Z,25.77
2018-09-05T13:17:50.362Z,25.88
2018-09-05T13:19:16.996Z,26.07
2018-09-05T13:20:44.579Z,26.20
2018-09-05T13:22:12.500Z,26.30
2018-09-05T13:23:38.345Z,26.42
2018-09-05T13:25:05.167Z,26.53
2018-09-05T13:26:32.952Z,26.49
2018-09-05T13:28:00.482Z,26.51
2018-09-05T13:29:27.197Z,26.58
2018-09-05T13:30:54.858Z,26.62
2018-09-05T13:32:23.456Z,26.66
2018-09-05T13:33:51.075Z,26.67
2018-09-05T13:35:16.814Z,26.67
2018-09-05T13:36:44.455Z,26.66
2018-09-05T13:38:12.036Z,26.74
2018-09-05T13:39:39.371Z,26.83
2018-09-05T13:41:07.026Z,26.85
2018-09-05T13:42:34.736Z,27.04
2018-09-05T13:44:01.832Z,27.12
2018-09-05T13:45:29.748Z,27.09
2018-09-05T13:46:55.602Z,27.17
2018-09-05T13:48:23.229Z,27.20
2018-09-05T13:49:50.782Z,27.09
2018-09-05T13:51:18.512Z,26.93
2018-09-05T13:52:46.124Z,26.77
2018-09-05T13:54:12.958Z,26.58
2018-09-05T13:55:40.538Z,26.38
2018-09-05T13:57:09.123Z,26.19
2018-09-05T13:58:36.774Z,26.07
2018-09-05T14:00:02.762Z,25.82
2018-09-05T14:01:31.377Z,25.62
2018-09-05T14:02:57.335Z,25.43
2018-09-05T14:04:24.992Z,25.40
2018-09-05T14:05:53.578Z,25.26
2018-09-05T14:07:20.096Z,25.22
2018-09-05T14:08:47.512Z,25.16
2018-09-05T14:10:15.241Z,25.11
2018-09-05T14:11:42.897Z,25.12
2018-09-05T14:13:10.002Z,25.10
2018-09-05T14:14:36.881Z,25.01
2018-09-05T14:16:05.523Z,25.01
2018-09-05T14:17:34.661Z,25.05
2018-09-05T14:18:58.663Z,25.10
2018-09-05T14:20:26.202Z,25.14
2018-09-05T14:21:53.866Z,25.19
2018-09-05T14:23:21.574Z,25.20
2018-09-05T14:24:50.178Z,25.24
2018-09-05T14:26:17.638Z,25.23
2018-09-05T14:27:44.322Z,25.19
2018-09-05T14:29:11.950Z,25.14
2018-09-05T14:30:39.500Z,25.10
2018-09-05T14:32:06.938Z,25.05
2018-09-05T14:33:34.516Z,24.97
2018-09-05T14:35:02.071Z,24.90
2018-09-05T14:36:30.601Z,24.83
2018-09-05T14:37:58.185Z,24.77
2018-09-05T14:39:25.001Z,24.58
2018-09-05T14:40:52.365Z,24.57
2018-09-05T14:42:20.887Z,24.56
2018-09-05T14:43:47.565Z,24.58
2018-09-05T14:45:13.235Z,24.52
2018-09-05T14:46:40.576Z,24.50
2018-09-05T14:48:08.123Z,24.47
2018-09-05T14:49:34.687Z,24.38
2018-09-05T14:51:02.355Z,24.38
2018-09-05T14:52:29.318Z,24.37
2018-09-05T14:53:57.916Z,24.36
2018-09-05T14:55:24.346Z,24.36
2018-09-05T14:56:52.839Z,24.33
2018-09-05T14:58:19.510Z,24.32
2018-09-05T14:59:47.160Z,24.32
2018-09-05T15:01:15.141Z,24.32
2018-09-05T15:02:42.780Z,24.30
2018-09-05T15:04:09.954Z,24.26
2018-09-05T15:05:37.444Z,24.28
2018-09-05T15:07:03.885Z,24.28
2018-09-05T15:08:31.296Z,24.25
2018-09-05T15:09:58.818Z,24.20
2018-09-05T15:11:26.333Z,24.18
2018-09-05T15:12:53.764Z,24.12
2018-09-05T15:14:21.509Z,24.11
2018-09-05T15:15:48.390Z,24.07
2018-09-05T15:17:16.931Z,24.06
2018-09-05T15:18:43.478Z,24.09
2018-09-05T15:20:12.232Z,24.06
2018-09-05T15:21:38.779Z,24.05
2018-09-05T15:23:06.480Z,24.00
2018-09-05T15:24:33.868Z,23.97
2018-09-05T15:26:01.897Z,23.98
2018-09-05T15:27:28.376Z,23.97
2018-09-05T15:28:56.045Z,23.96
2018-09-05T15:30:23.697Z,23.94
2018-09-05T15:31:51.628Z,23.92
2018-09-05T15:33:18.422Z,23.93
2018-09-05T15:34:45.921Z,23.93
2018-09-05T15:36:12.410Z,23.92
2018-09-05T15:37:39.961Z,23.88
2018-09-05T15:39:07.485Z,23.87
2018-09-05T15:40:34.737Z,23.82
2018-09-05T15:42:02.268Z,23.81
2018-09-05T15:43:30.441Z,23.78
2018-09-05T15:44:57.358Z,23.76
2018-09-05T15:46:24.802Z,23.76
2018-09-05T15:47:50.759Z,23.74
2018-09-05T15:49:18.292Z,23.74
2018-09-05T15:50:47.023Z,23.71
2018-09-05T15:52:13.405Z,23.72
2018-09-05T15:53:40.747Z,23.72
2018-09-05T15:55:09.282Z,23.70
2018-09-05T15:56:37.073Z,23.67
2018-09-05T15:58:03.143Z,23.63
2018-09-05T15:59:29.940Z,23.56
2018-09-05T16:00:58.621Z,23.48
2018-09-05T16:02:25.132Z,23.41
2018-09-05T16:03:52.970Z,23.35
2018-09-05T16:05:19.470Z,23.27
2018-09-05T16:06:48.122Z,23.22
2018-09-05T16:08:14.479Z,23.16
2018-09-05T16:09:42.152Z,23.13
2018-09-05T16:11:09.600Z,23.11
2018-09-05T16:12:37.175Z,23.08
2018-09-05T16:14:05.728Z,23.07
2018-09-05T16:15:32.164Z,23.05
2018-09-05T16:17:00.368Z,23.06
2018-09-05T16:18:26.967Z,23.06
2018-09-05T16:19:54.588Z,23.02
2018-09-05T16:21:21.714Z,23.01
2018-09-05T16:22:50.202Z,23.01
2018-09-05T16:24:17.730Z,23.01
2018-09-05T16:25:44.138Z,23.00
2018-09-05T16:27:11.655Z,22.99
2018-09-05T16:28:39.327Z,22.97
2018-09-05T16:30:06.875Z,22.97
2018-09-05T16:31:34.384Z,22.93
2018-09-05T16:33:03.055Z,22.92
2018-09-05T16:34:30.426Z,22.86
2018-09-05T16:35:58.136Z,22.83
2018-09-05T16:37:24.039Z,22.80
2018-09-05T16:38:51.686Z,22.78
2018-09-05T16:40:20.350Z,22.76
2018-09-05T16:41:46.019Z,22.74
2018-09-05T16:43:13.565Z,22.74
2018-09-05T16:44:40.021Z,22.67
2018-09-05T16:46:08.610Z,22.66
2018-09-05T16:47:35.010Z,22.61
2018-09-05T16:49:02.674Z,22.58
2018-09-05T16:50:29.691Z,22.49
2018-09-05T16:51:57.185Z,22.49
2018-09-05T16:53:24.614Z,22.48
2018-09-05T16:54:52.302Z,22.47
2018-09-05T16:56:19.817Z,22.39
2018-09-05T16:57:48.254Z,22.35
2018-09-05T16:59:14.808Z,22.33
2018-09-05T17:00:42.363Z,22.27
2018-09-05T17:02:09.919Z,22.23
2018-09-05T17:03:40.470Z,22.18
2018-09-05T17:05:05.064Z,22.17
2018-09-05T17:06:32.446Z,22.14
2018-09-05T17:07:59.997Z,22.10
2018-09-05T17:09:27.530Z,22.01
2018-09-05T17:10:55.280Z,22.02
2018-09-05T17:12:22.664Z,22.00
2018-09-05T17:13:50.339Z,21.98
2018-09-05T17:15:17.911Z,21.92
2018-09-05T17:16:44.451Z,21.88
2018-09-05T17:18:12.916Z,21.87
2018-09-05T17:19:39.775Z,21.84
2018-09-05T17:21:06.291Z,21.77
2018-09-05T17:22:34.718Z,21.74
2018-09-05T17:24:01.961Z,21.68
2018-09-05T17:25:28.427Z,21.64
2018-09-05T17:26:56.054Z,21.60
2018-09-05T17:28:24.681Z,21.57
2018-09-05T17:29:51.145Z,21.55
2018-09-05T17:31:18.721Z,21.51
2018-09-05T17:32:45.621Z,21.46
2018-09-05T17:34:13.062Z,21.42
2018-09-05T17:35:40.439Z,21.34
2018-09-05T17:37:08.043Z,21.32
2018-09-05T17:38:35.852Z,21.28
2018-09-05T17:40:02.691Z,21.21
2018-09-05T17:41:29.788Z,21.15
2018-09-05T17:42:58.339Z,21.11
2018-09-05T17:44:25.930Z,21.06
2018-09-05T17:45:52.284Z,21.01
2018-09-05T17:47:19.655Z,20.97
2018-09-05T17:48:48.278Z,20.95
2018-09-05T17:50:13.543Z,20.93
2018-09-05T17:51:41.515Z,20.92
2018-09-05T17:53:08.042Z,20.87
2018-09-05T17:54:35.576Z,20.82
2018-09-05T17:56:03.835Z,20.75
2018-09-05T17:57:31.369Z,20.67
2018-09-05T17:58:57.756Z,20.62
2018-09-05T18:00:25.373Z,20.57
2018-09-05T18:01:52.923Z,20.54
2018-09-05T18:03:18.783Z,20.53
2018-09-05T18:04:47.312Z,20.52
2018-09-05T18:06:13.273Z,20.50
2018-09-05T18:07:40.647Z,20.48
2018-09-05T18:09:06.243Z,20.42
2018-09-05T18:10:34.416Z,20.35
2018-09-05T18:12:00.574Z,20.30
2018-09-05T18:13:27.854Z,20.22
2018-09-05T18:14:55.424Z,20.16
2018-09-05T18:16:24.063Z,20.14
2018-09-05T18:17:49.388Z,20.10
2018-09-05T18:19:17.985Z,20.06
2018-09-05T18:20:45.469Z,20.02
2018-09-05T18:22:11.837Z,19.96
2018-09-05T18:23:38.333Z,19.91
2018-09-05T18:25:05.643Z,19.88
2018-09-05T18:26:33.261Z,19.84
2018-09-05T18:28:00.760Z,19.79
2018-09-05T18:29:28.154Z,19.72
2018-09-05T18:30:56.472Z,19.66
2018-09-05T18:32:23.078Z,19.61
2018-09-05T18:33:50.688Z,19.59
2018-09-05T18:35:19.429Z,19.54
2018-09-05T18:36:45.917Z,19.49
2018-09-05T18:38:14.549Z,19.45
2018-09-05T18:39:39.799Z,19.39
2018-09-05T18:41:05.957Z,19.35
2018-09-05T18:42:34.334Z,19.33
2018-09-05T18:43:59.969Z,19.31
2018-09-05T18:45:27.460Z,19.29
2018-09-05T18:46:56.093Z,19.27
2018-09-05T18:48:21.800Z,19.25
2018-09-05T18:49:49.142Z,19.21
2018-09-05T18:51:17.640Z,19.16
2018-09-05T18:52:43.417Z,19.14
2018-09-05T18:54:10.748Z,19.16
2018-09-05T18:55:36.245Z,19.17
2018-09-05T18:57:03.781Z,19.17
2018-09-05T18:58:31.026Z,19.17
2018-09-05T18:59:58.377Z,19.15
2018-09-05T19:01:25.854Z,19.11
2018-09-05T19:02:53.459Z,19.09
2018-09-05T19:04:21.941Z,19.06
2018-09-05T19:05:48.385Z,19.03
2018-09-05T19:07:14.875Z,19.01
2018-09-05T19:08:43.153Z,18.99
2018-09-05T19:10:09.841Z,18.98
2018-09-05T19:11:36.023Z,18.97
2018-09-05T19:13:04.692Z,18.95
2018-09-05T19:14:31.161Z,18.92
2018-09-05T19:15:59.493Z,18.90
2018-09-05T19:17:25.953Z,18.89
2018-09-05T19:18:52.179Z,18.86
2018-09-05T19:20:19.376Z,18.85
2018-09-05T19:21:47.876Z,18.84
2018-09-05T19:23:14.321Z,18.85
2018-09-05T19:24:41.720Z,18.83
2018-09-05T19:26:09.290Z,18.83
